KTVI/TVI METAR and TAF weather

Enter ICAO airport designator
Station Type Date Time Source
KTVI METAR 2020/01/26 03:55 UTC NOAA

KTVI 260355Z AUTO 00000KT 10SM CLR 07/03 A3017 RMK AO2


Station Type Date Time Source
KTVI Decoded METAR 2020/01/26 03:55 UTC NOAA

Thomasville, GA, United States (KTVI) 30-54-06N 083-52-53W
Jan 25, 2020 - 10:55 PM EST / 2020.01.26 0355 UTC
Wind: Calm:0
Visibility: 10 mile(s):0
Sky conditions: clear
Temperature: 44 F (7 C)
Dew Point: 37 F (3 C)
Relative Humidity: 75%
Pressure (altimeter): 30.17 in. Hg (1021 hPa)
ob: KTVI 260355Z AUTO 00000KT 10SM CLR 07/03 A3017 RMK AO2
cycle: 4

Station Type Date Time Source
KTVI TAF UTC NOAA

Error!

Example: see airport list